createdAt,value
2019-04-21T00:02:26.512Z,6.53
2019-04-21T00:05:49.892Z,6.52
2019-04-21T00:08:57.937Z,6.49
2019-04-21T00:12:05.721Z,6.48
2019-04-21T00:14:57.914Z,6.47
2019-04-21T00:18:01.077Z,6.43
2019-04-21T00:21:11.724Z,6.48
2019-04-21T00:24:24.238Z,6.36
2019-04-21T00:27:32.426Z,6.32
2019-04-21T00:30:44.446Z,6.30
2019-04-21T00:33:33.516Z,6.28
2019-04-21T00:36:47.249Z,6.31
2019-04-21T00:40:03.753Z,6.33
2019-04-21T00:43:05.069Z,6.30
2019-04-21T00:46:04.758Z,6.17
2019-04-21T00:49:18.318Z,6.03
2019-04-21T00:53:00.775Z,5.93
2019-04-21T00:56:08.627Z,5.84
2019-04-21T00:59:17.990Z,5.79
2019-04-21T01:02:20.228Z,5.74
2019-04-21T01:05:22.537Z,5.77
2019-04-21T01:08:28.223Z,5.76
2019-04-21T01:11:38.995Z,5.73
2019-04-21T01:14:49.692Z,5.72
2019-04-21T01:17:51.874Z,5.71
2019-04-21T01:20:35.802Z,5.67
2019-04-21T01:23:40.332Z,5.66
2019-04-21T01:26:56.776Z,5.63
2019-04-21T01:30:14.303Z,5.58
2019-04-21T01:33:21.567Z,5.56
2019-04-21T01:36:18.346Z,5.54
2019-04-21T01:39:39.338Z,5.54
2019-04-21T01:43:13.670Z,5.55
2019-04-21T01:46:13.917Z,5.55
2019-04-21T01:49:21.887Z,5.65
2019-04-21T01:52:38.236Z,5.60
2019-04-21T01:56:01.868Z,5.49
2019-04-21T01:58:54.004Z,5.38
2019-04-21T02:02:16.016Z,5.36
2019-04-21T02:05:27.030Z,5.30
2019-04-21T02:08:21.555Z,5.23
2019-04-21T02:11:37.318Z,5.18
2019-04-21T02:14:45.855Z,5.18
2019-04-21T02:17:49.822Z,5.19
2019-04-21T02:20:42.268Z,5.18
2019-04-21T02:24:05.703Z,5.14
2019-04-21T02:27:07.539Z,5.14
2019-04-21T02:30:22.392Z,5.17
2019-04-21T02:33:39.255Z,5.22
2019-04-21T02:36:40.424Z,5.29
2019-04-21T02:39:51.376Z,5.17
2019-04-21T02:45:58.644Z,5.00
2019-04-21T02:52:14.242Z,4.89
2019-04-21T02:55:07.342Z,4.84
2019-04-21T02:58:32.012Z,4.75
2019-04-21T03:08:25.322Z,4.67
2019-04-21T03:11:21.999Z,4.69
2019-04-21T03:17:43.839Z,4.79
2019-04-21T03:20:44.288Z,4.80
2019-04-21T03:23:54.086Z,4.73
2019-04-21T03:27:14.284Z,4.71
2019-04-21T03:39:29.508Z,4.54
2019-04-21T03:42:33.806Z,4.53
2019-04-21T03:48:40.691Z,4.42
2019-04-21T03:55:50.990Z,4.38
2019-04-21T03:58:44.955Z,4.45
2019-04-21T04:01:58.090Z,4.46
2019-04-21T04:05:42.341Z,4.46
2019-04-21T04:08:47.573Z,4.34
2019-04-21T04:11:50.512Z,4.25
2019-04-21T04:14:40.773Z,4.19
2019-04-21T04:17:49.936Z,4.26
2019-04-21T04:21:04.480Z,4.24
2019-04-21T04:24:07.362Z,4.23
2019-04-21T04:27:20.949Z,4.31
2019-04-21T04:30:22.403Z,4.35
2019-04-21T04:40:10.418Z,4.41
2019-04-21T04:43:13.201Z,4.48
2019-04-21T04:46:18.427Z,4.61
2019-04-21T04:49:40.017Z,4.66
2019-04-21T04:55:43.424Z,4.88
2019-04-21T05:05:07.036Z,5.13
2019-04-21T05:08:07.631Z,5.23
2019-04-21T05:11:28.391Z,5.34
2019-04-21T05:17:31.000Z,5.42
2019-04-21T05:20:41.828Z,5.51
2019-04-21T05:23:25.648Z,5.60
2019-04-21T05:26:29.910Z,5.74
2019-04-21T05:29:53.961Z,5.84
2019-04-21T05:33:05.729Z,5.92
2019-04-21T05:36:11.032Z,5.99
2019-04-21T05:39:34.746Z,6.07
2019-04-21T05:42:44.138Z,6.20
2019-04-21T05:45:51.937Z,6.33
2019-04-21T05:48:57.910Z,6.43
2019-04-21T05:52:03.739Z,6.59
2019-04-21T05:55:18.064Z,6.75
2019-04-21T05:58:21.400Z,6.88
2019-04-21T06:01:34.490Z,7.01
2019-04-21T06:04:51.732Z,7.15
2019-04-21T06:07:40.650Z,7.30
2019-04-21T06:10:52.493Z,7.45
2019-04-21T06:14:02.576Z,7.59
2019-04-21T06:17:04.515Z,7.75
2019-04-21T06:20:07.922Z,7.90
2019-04-21T06:23:19.092Z,8.09
2019-04-21T06:29:33.333Z,8.41
2019-04-21T06:32:49.127Z,8.57
2019-04-21T06:36:11.394Z,8.72
2019-04-21T06:39:11.653Z,8.88
2019-04-21T06:42:02.536Z,9.09
2019-04-21T06:45:13.029Z,9.42
2019-04-21T06:48:30.170Z,9.76
2019-04-21T06:51:28.890Z,10.11
2019-04-21T06:54:35.644Z,10.47
2019-04-21T06:57:39.975Z,11.01
2019-04-21T07:00:42.459Z,11.13
2019-04-21T07:04:03.652Z,11.44
2019-04-21T07:06:59.243Z,11.48
2019-04-21T07:10:10.383Z,11.81
2019-04-21T07:13:15.217Z,11.89
2019-04-21T07:16:25.710Z,12.08
2019-04-21T07:22:37.541Z,12.26
2019-04-21T07:25:41.211Z,12.23
2019-04-21T07:28:56.348Z,12.55
2019-04-21T07:31:59.248Z,12.69
2019-04-21T07:35:03.624Z,12.76
2019-04-21T07:38:08.361Z,12.71
2019-04-21T07:41:11.328Z,12.77
2019-04-21T07:44:15.003Z,12.94
2019-04-21T07:47:26.783Z,12.89
2019-04-21T07:50:57.830Z,13.05
2019-04-21T07:54:13.359Z,13.34
2019-04-21T07:57:03.991Z,13.21
2019-04-21T08:03:30.004Z,13.33
2019-04-21T08:06:33.722Z,13.33
2019-04-21T08:09:40.752Z,13.53
2019-04-21T08:12:43.191Z,13.54
2019-04-21T08:15:52.919Z,13.58
2019-04-21T08:19:01.280Z,13.58
2019-04-21T08:22:11.002Z,13.73
2019-04-21T08:25:12.082Z,13.73
2019-04-21T08:28:22.489Z,14.03
2019-04-21T08:31:34.370Z,14.03
2019-04-21T08:34:33.919Z,14.01
2019-04-21T08:37:37.069Z,14.01
2019-04-21T08:40:49.104Z,14.09
2019-04-21T08:43:52.682Z,14.34
2019-04-21T08:47:12.864Z,14.34
2019-04-21T08:50:15.307Z,14.32
2019-04-21T08:53:27.415Z,14.19
2019-04-21T08:56:49.575Z,14.19
2019-04-21T09:00:22.934Z,14.69
2019-04-21T09:10:41.009Z,14.72
2019-04-21T09:13:42.990Z,14.90
2019-04-21T09:16:49.118Z,15.16
2019-04-21T09:20:13.833Z,15.14
2019-04-21T09:23:17.224Z,14.91
2019-04-21T09:26:18.561Z,15.15
2019-04-21T09:29:17.241Z,15.32
2019-04-21T09:32:19.652Z,15.44
2019-04-21T09:35:20.819Z,15.39
2019-04-21T09:38:33.801Z,15.35
2019-04-21T09:41:34.792Z,15.35
2019-04-21T09:44:41.007Z,15.40
2019-04-21T09:47:52.255Z,15.50
2019-04-21T09:50:50.911Z,15.80
2019-04-21T09:54:01.874Z,15.67
2019-04-21T09:57:07.736Z,15.92
2019-04-21T10:00:15.216Z,15.93
2019-04-21T10:03:17.289Z,15.88
2019-04-21T10:06:21.050Z,16.00
2019-04-21T10:09:26.434Z,16.04
2019-04-21T10:12:30.799Z,15.99
2019-04-21T10:15:35.576Z,16.15
2019-04-21T10:18:40.342Z,15.87
2019-04-21T10:21:44.813Z,16.13
2019-04-21T10:24:49.329Z,16.03
2019-04-21T10:27:54.940Z,16.26
2019-04-21T10:31:00.670Z,16.09
2019-04-21T10:34:05.353Z,16.09
2019-04-21T10:37:11.118Z,16.17
2019-04-21T10:40:16.208Z,15.88
2019-04-21T10:43:23.698Z,15.90
2019-04-21T10:46:26.864Z,15.91
2019-04-21T10:49:31.254Z,16.02
2019-04-21T10:52:53.572Z,16.04
2019-04-21T10:56:13.564Z,15.96
2019-04-21T10:59:08.039Z,15.74
2019-04-21T11:02:18.965Z,15.85
2019-04-21T11:05:24.846Z,15.83
2019-04-21T11:08:34.081Z,15.77
2019-04-21T11:11:35.569Z,15.83
2019-04-21T11:14:41.070Z,15.86
2019-04-21T11:17:48.858Z,15.94
2019-04-21T11:20:53.440Z,16.08
2019-04-21T11:23:58.496Z,16.16
2019-04-21T11:27:04.530Z,16.05
2019-04-21T11:30:09.640Z,16.31
2019-04-21T11:33:15.371Z,16.22
2019-04-21T11:36:21.501Z,16.49
2019-04-21T11:39:39.263Z,16.43
2019-04-21T11:42:38.087Z,16.48
2019-04-21T11:45:42.763Z,16.61
2019-04-21T11:48:48.374Z,16.60
2019-04-21T11:51:53.222Z,16.20
2019-04-21T11:54:58.577Z,16.10
2019-04-21T11:58:03.574Z,16.15
2019-04-21T12:01:09.581Z,16.27
2019-04-21T12:04:15.964Z,16.28
2019-04-21T12:07:20.776Z,16.12
2019-04-21T12:10:25.165Z,16.23
2019-04-21T12:13:40.318Z,16.43
2019-04-21T12:16:44.980Z,16.23
2019-04-21T12:19:50.658Z,16.22
2019-04-21T12:22:55.428Z,16.38
2019-04-21T12:26:01.079Z,16.13
2019-04-21T12:29:06.013Z,16.24
2019-04-21T12:32:28.407Z,16.39
2019-04-21T12:35:33.543Z,16.31
2019-04-21T12:38:44.658Z,16.27
2019-04-21T12:41:44.657Z,16.29
2019-04-21T12:44:49.529Z,16.40
2019-04-21T12:47:54.052Z,16.26
2019-04-21T12:50:59.811Z,16.41
2019-04-21T12:54:08.101Z,16.62
2019-04-21T12:57:13.804Z,16.57
2019-04-21T13:00:20.782Z,16.56
2019-04-21T13:03:26.560Z,16.48
2019-04-21T13:06:31.805Z,16.63
2019-04-21T13:09:37.550Z,16.50
2019-04-21T13:12:43.787Z,16.36
2019-04-21T13:15:49.838Z,16.42
2019-04-21T13:18:55.379Z,16.52
2019-04-21T13:22:00.210Z,16.60
2019-04-21T13:25:07.625Z,16.51
2019-04-21T13:28:12.556Z,16.54
2019-04-21T13:31:22.352Z,16.30
2019-04-21T13:34:35.908Z,16.40
2019-04-21T13:37:52.658Z,16.27
2019-04-21T13:41:36.701Z,16.55
2019-04-21T13:44:28.942Z,16.83
2019-04-21T13:47:34.674Z,16.60
2019-04-21T13:50:59.534Z,16.66
2019-04-21T13:54:07.282Z,16.68
2019-04-21T13:57:12.516Z,16.70
2019-04-21T14:00:19.709Z,16.67
2019-04-21T14:03:26.746Z,17.02
2019-04-21T14:06:34.537Z,16.85
2019-04-21T14:09:48.949Z,17.09
2019-04-21T14:12:46.703Z,17.17
2019-04-21T14:15:51.882Z,17.24
2019-04-21T14:18:57.207Z,16.93
2019-04-21T14:22:03.438Z,16.97
2019-04-21T14:25:09.943Z,16.87
2019-04-21T14:28:15.648Z,16.78
2019-04-21T14:31:22.213Z,16.82
2019-04-21T14:34:28.038Z,16.89
2019-04-21T14:37:32.968Z,16.76
2019-04-21T14:40:38.796Z,16.88
2019-04-21T14:43:43.922Z,16.91
2019-04-21T14:47:25.451Z,16.68
2019-04-21T14:50:52.480Z,16.93
2019-04-21T14:55:02.771Z,17.06
2019-04-21T14:57:21.472Z,17.19
2019-04-21T15:00:31.266Z,17.01
2019-04-21T15:03:37.559Z,16.82
2019-04-21T15:06:43.291Z,16.88
2019-04-21T15:10:00.726Z,16.84
2019-04-21T15:12:56.009Z,16.77
2019-04-21T15:16:02.655Z,16.79
2019-04-21T15:19:08.650Z,17.03
2019-04-21T15:22:14.502Z,16.96
2019-04-21T15:25:20.168Z,16.98
2019-04-21T15:28:28.379Z,16.96
2019-04-21T15:31:34.817Z,17.34
2019-04-21T15:34:40.228Z,17.93
2019-04-21T15:37:46.335Z,17.96
2019-04-21T15:40:56.059Z,18.14
2019-04-21T15:44:00.621Z,18.54
2019-04-21T15:47:04.345Z,18.48
2019-04-21T15:50:15.507Z,18.17
2019-04-21T15:53:19.373Z,18.29
2019-04-21T15:56:32.994Z,17.95
2019-04-21T16:00:02.815Z,18.76
2019-04-21T16:03:08.713Z,18.19
2019-04-21T16:06:19.420Z,18.73
2019-04-21T16:12:53.806Z,18.52
2019-04-21T16:15:56.624Z,18.63
2019-04-21T16:19:01.426Z,18.36
2019-04-21T16:22:06.595Z,17.89
2019-04-21T16:25:12.872Z,17.92
2019-04-21T16:28:21.673Z,17.74
2019-04-21T16:31:27.918Z,17.51
2019-04-21T16:34:40.335Z,16.89
2019-04-21T16:37:41.597Z,16.95
2019-04-21T16:40:55.566Z,17.13
2019-04-21T16:43:53.299Z,17.04
2019-04-21T16:46:59.320Z,17.19
2019-04-21T16:50:05.572Z,17.26
2019-04-21T16:53:19.909Z,17.35
2019-04-21T16:56:54.005Z,17.49
2019-04-21T17:00:04.408Z,17.60
2019-04-21T17:03:10.448Z,17.94
2019-04-21T17:06:15.294Z,18.02
2019-04-21T17:09:20.947Z,18.02
2019-04-21T17:12:26.808Z,17.90
2019-04-21T17:15:51.484Z,17.88
2019-04-21T17:18:51.389Z,17.98
2019-04-21T17:21:45.748Z,17.81
2019-04-21T17:24:53.168Z,17.46
2019-04-21T17:27:58.747Z,17.11
2019-04-21T17:31:04.689Z,17.19
2019-04-21T17:34:14.507Z,16.79
2019-04-21T17:37:17.242Z,17.00
2019-04-21T17:40:26.313Z,16.68
2019-04-21T17:43:31.971Z,16.57
2019-04-21T17:46:45.860Z,16.62
2019-04-21T17:49:49.124Z,15.94
2019-04-21T17:53:03.442Z,15.57
2019-04-21T17:56:23.410Z,15.23
2019-04-21T17:59:44.785Z,15.30
2019-04-21T18:02:41.359Z,15.12
2019-04-21T18:05:42.418Z,14.76
2019-04-21T18:09:15.571Z,14.61
2019-04-21T18:12:26.238Z,14.52
2019-04-21T18:15:35.981Z,14.15
2019-04-21T18:18:26.554Z,13.84
2019-04-21T18:21:59.881Z,13.89
2019-04-21T18:25:28.374Z,13.96
2019-04-21T18:28:26.253Z,13.50
2019-04-21T18:31:42.697Z,13.35
2019-04-21T18:35:05.070Z,13.32
2019-04-21T18:38:22.571Z,13.32
2019-04-21T18:41:28.726Z,12.98
2019-04-21T18:45:34.357Z,12.98
2019-04-21T18:48:39.856Z,12.80
2019-04-21T18:52:19.376Z,12.80
2019-04-21T18:55:28.205Z,12.47
2019-04-21T18:58:26.663Z,12.18
2019-04-21T19:01:36.568Z,11.87
2019-04-21T19:04:43.141Z,11.87
2019-04-21T19:08:10.499Z,11.75
2019-04-21T19:11:18.912Z,11.69
2019-04-21T19:14:31.695Z,11.62
2019-04-21T19:20:48.667Z,11.65
2019-04-21T19:24:07.201Z,11.70
2019-04-21T19:27:04.592Z,11.70
2019-04-21T19:30:38.481Z,11.65
2019-04-21T19:33:21.567Z,11.65
2019-04-21T19:36:13.399Z,11.70
2019-04-21T19:39:34.957Z,11.60
2019-04-21T19:42:40.788Z,11.46
2019-04-21T19:45:54.050Z,11.30
2019-04-21T19:49:10.330Z,11.02
2019-04-21T19:52:03.998Z,11.02
2019-04-21T19:55:04.571Z,10.92
2019-04-21T19:58:12.699Z,10.93
2019-04-21T20:01:19.347Z,10.94
2019-04-21T20:04:34.329Z,11.00
2019-04-21T20:07:49.576Z,11.03
2019-04-21T20:11:03.860Z,11.02
2019-04-21T20:14:37.630Z,11.02
2019-04-21T20:17:16.525Z,11.07
2019-04-21T20:20:11.265Z,11.07
2019-04-21T20:23:26.132Z,11.03
2019-04-21T20:26:41.585Z,11.04
2019-04-21T20:30:07.131Z,11.06
2019-04-21T20:37:31.515Z,11.03
2019-04-21T20:40:53.604Z,11.05
2019-04-21T20:44:17.195Z,10.98
2019-04-21T20:47:16.048Z,10.94
2019-04-21T20:50:27.496Z,10.92
2019-04-21T20:53:41.549Z,10.93
2019-04-21T20:56:57.558Z,10.90
2019-04-21T21:00:37.185Z,10.87
2019-04-21T21:03:50.189Z,10.86
2019-04-21T21:07:06.190Z,10.78
2019-04-21T21:10:20.895Z,10.72
2019-04-21T21:13:31.891Z,10.61
2019-04-21T21:16:46.371Z,10.50
2019-04-21T21:20:14.517Z,10.40
2019-04-21T21:23:11.798Z,10.20
2019-04-21T21:26:38.461Z,10.02
2019-04-21T21:29:49.936Z,9.83
2019-04-21T21:33:11.356Z,9.70
2019-04-21T21:36:20.983Z,9.65
2019-04-21T21:39:21.834Z,9.55
2019-04-21T21:42:25.899Z,9.42
2019-04-21T21:45:30.374Z,9.34
2019-04-21T21:51:49.978Z,9.18
2019-04-21T21:54:51.917Z,9.03
2019-04-21T21:58:02.466Z,8.99
2019-04-21T22:01:14.783Z,8.96
2019-04-21T22:04:26.883Z,8.96
2019-04-21T22:07:33.177Z,8.98
2019-04-21T22:10:39.193Z,9.01
2019-04-21T22:13:54.737Z,9.03
2019-04-21T22:17:10.961Z,9.10
2019-04-21T22:20:22.522Z,9.20
2019-04-21T22:23:24.139Z,9.29
2019-04-21T22:26:21.148Z,9.45
2019-04-21T22:29:38.171Z,9.61
2019-04-21T22:32:50.271Z,9.69
2019-04-21T22:35:59.212Z,9.71
2019-04-21T22:39:21.013Z,9.69
2019-04-21T22:42:26.610Z,9.70
2019-04-21T22:45:45.403Z,9.66
2019-04-21T22:48:59.726Z,9.63
2019-04-21T22:52:11.288Z,9.65
2019-04-21T22:56:05.774Z,9.57
2019-04-21T22:59:15.073Z,9.59
2019-04-21T23:06:00.575Z,9.48
2019-04-21T23:09:04.557Z,9.43
2019-04-21T23:12:12.469Z,9.37
2019-04-21T23:15:34.532Z,9.36
2019-04-21T23:18:46.372Z,9.33
2019-04-21T23:25:39.244Z,9.37
2019-04-21T23:28:56.813Z,9.39
2019-04-21T23:32:12.360Z,9.39
2019-04-21T23:35:09.260Z,9.34
2019-04-21T23:38:10.969Z,9.27
2019-04-21T23:41:21.486Z,9.28
2019-04-21T23:52:06.286Z,8.84
2019-04-21T23:55:29.424Z,8.71
2019-04-21T23:58:38.869Z,8.57
